createdAt,value
2018-06-15T00:00:58.978Z,18.13
2018-06-15T00:03:28.511Z,18.01
2018-06-15T00:05:58.902Z,17.83
2018-06-15T00:08:28.562Z,17.83
2018-06-15T00:10:58.526Z,17.72
2018-06-15T00:13:28.822Z,17.46
2018-06-15T00:15:58.523Z,17.27
2018-06-15T00:18:28.378Z,17.12
2018-06-15T00:20:58.297Z,17.03
2018-06-15T00:23:28.512Z,16.94
2018-06-15T00:25:58.767Z,16.77
2018-06-15T00:28:28.419Z,16.72
2018-06-15T00:30:57.945Z,17.05
2018-06-15T00:33:28.198Z,17.05
2018-06-15T00:35:57.864Z,17.23
2018-06-15T00:38:27.600Z,17.18
2018-06-15T00:40:57.513Z,17.08
2018-06-15T00:43:27.490Z,17.23
2018-06-15T00:45:57.479Z,17.22
2018-06-15T00:48:27.248Z,17.25
2018-06-15T00:50:57.046Z,17.20
2018-06-15T00:53:27.302Z,17.30
2018-06-15T00:55:57.083Z,17.37
2018-06-15T00:58:26.636Z,17.26
2018-06-15T01:00:56.593Z,17.28
2018-06-15T01:03:26.438Z,17.35
2018-06-15T01:05:56.386Z,17.39
2018-06-15T01:08:26.728Z,17.10
2018-06-15T01:10:56.704Z,17.02
2018-06-15T01:13:27.264Z,17.05
2018-06-15T01:15:57.042Z,17.18
2018-06-15T01:18:26.611Z,17.24
2018-06-15T01:20:56.915Z,17.22
2018-06-15T01:23:26.599Z,17.38
2018-06-15T01:25:56.284Z,17.51
2018-06-15T01:28:26.063Z,17.74
2018-06-15T01:30:55.583Z,17.97
2018-06-15T01:33:25.539Z,18.06
2018-06-15T01:35:55.788Z,18.17
2018-06-15T01:38:25.888Z,18.14
2018-06-15T01:40:55.674Z,18.10
2018-06-15T01:43:25.946Z,17.96
2018-06-15T01:45:55.839Z,17.97
2018-06-15T01:48:26.196Z,17.88
2018-06-15T01:50:55.860Z,17.95
2018-06-15T01:53:25.811Z,17.90
2018-06-15T01:55:55.504Z,17.87
2018-06-15T01:58:25.181Z,17.69
2018-06-15T02:00:55.114Z,17.45
2018-06-15T02:03:25.036Z,17.22
2018-06-15T02:05:55.177Z,16.99
2018-06-15T02:08:25.318Z,16.81
2018-06-15T02:10:55.323Z,16.82
2018-06-15T02:13:25.331Z,16.87
2018-06-15T02:15:55.457Z,16.93
2018-06-15T02:18:25.267Z,17.38
2018-06-15T02:20:55.099Z,17.59
2018-06-15T02:23:24.985Z,17.75
2018-06-15T02:25:54.935Z,17.76
2018-06-15T02:28:24.443Z,17.70
2018-06-15T02:30:54.117Z,17.85
2018-06-15T02:33:24.459Z,17.81
2018-06-15T02:35:54.428Z,17.79
2018-06-15T02:38:24.516Z,17.29
2018-06-15T02:40:54.194Z,17.43
2018-06-15T02:43:24.348Z,17.22
2018-06-15T02:45:54.171Z,17.21
2018-06-15T02:48:24.125Z,17.31
2018-06-15T02:50:54.430Z,17.26
2018-06-15T02:53:24.555Z,17.31
2018-06-15T02:55:54.207Z,17.27
2018-06-15T02:58:23.861Z,17.11
2018-06-15T03:00:54.077Z,17.01
2018-06-15T03:03:23.953Z,17.10
2018-06-15T03:05:54.255Z,17.39
2018-06-15T03:08:24.073Z,17.52
2018-06-15T03:10:54.295Z,17.22
2018-06-15T03:13:24.148Z,16.33
2018-06-15T03:15:54.223Z,15.60
2018-06-15T03:18:24.246Z,15.45
2018-06-15T03:20:54.077Z,15.66
2018-06-15T03:23:24.200Z,15.73
2018-06-15T03:25:53.855Z,15.82
2018-06-15T03:28:23.546Z,15.73
2018-06-15T03:30:53.843Z,15.61
2018-06-15T03:33:23.745Z,16.07
2018-06-15T03:38:28.890Z,16.18
2018-06-15T03:40:59.227Z,16.39
2018-06-15T03:43:29.168Z,16.62
2018-06-15T03:45:59.211Z,16.71
2018-06-15T03:48:29.009Z,16.86
2018-06-15T03:50:58.786Z,16.94
2018-06-15T03:53:28.623Z,17.22
2018-06-15T03:55:58.273Z,17.37
2018-06-15T03:58:27.901Z,17.68
2018-06-15T04:00:58.151Z,17.74
2018-06-15T04:03:27.935Z,17.97
2018-06-15T04:05:58.051Z,18.16
2018-06-15T04:08:27.899Z,18.17
2018-06-15T04:10:57.793Z,18.43
2018-06-15T04:13:27.487Z,18.54
2018-06-15T04:15:57.439Z,18.51
2018-06-15T04:18:27.537Z,18.69
2018-06-15T04:20:57.842Z,18.81
2018-06-15T04:23:27.545Z,18.87
2018-06-15T04:25:57.047Z,18.46
2018-06-15T04:28:27.219Z,18.59
2018-06-15T04:30:56.967Z,18.52
2018-06-15T04:33:27.016Z,18.77
2018-06-15T04:35:57.035Z,18.75
2018-06-15T04:38:27.030Z,18.73
2018-06-15T04:40:56.934Z,18.87
2018-06-15T04:43:26.871Z,18.92
2018-06-15T04:45:56.764Z,18.88
2018-06-15T04:48:26.488Z,18.71
2018-06-15T04:50:56.698Z,18.67
2018-06-15T04:53:26.255Z,18.82
2018-06-15T04:55:55.857Z,18.87
2018-06-15T04:58:25.469Z,18.67
2018-06-15T05:00:55.386Z,18.95
2018-06-15T05:03:25.634Z,19.05
2018-06-15T05:05:55.423Z,18.94
2018-06-15T05:08:25.523Z,18.84
2018-06-15T05:10:55.694Z,18.92
2018-06-15T05:13:25.563Z,18.86
2018-06-15T05:15:55.437Z,19.07
2018-06-15T05:18:25.095Z,19.18
2018-06-15T05:20:55.027Z,19.35
2018-06-15T05:23:24.935Z,19.18
2018-06-15T05:25:54.653Z,19.38
2018-06-15T05:28:24.343Z,19.25
2018-06-15T05:30:53.927Z,19.26
2018-06-15T05:33:23.710Z,19.36
2018-06-15T05:35:53.515Z,19.91
2018-06-15T05:38:23.388Z,20.12
2018-06-15T05:40:53.252Z,19.77
2018-06-15T05:43:23.210Z,19.94
2018-06-15T05:45:53.068Z,20.01
2018-06-15T05:48:23.406Z,20.47
2018-06-15T05:50:53.181Z,20.62
2018-06-15T05:53:23.212Z,20.50
2018-06-15T05:55:53.148Z,20.73
2018-06-15T05:58:22.687Z,20.60
2018-06-15T06:00:52.295Z,20.52
2018-06-15T06:03:22.012Z,20.64
2018-06-15T06:05:52.055Z,20.66
2018-06-15T06:08:22.132Z,20.69
2018-06-15T06:10:51.751Z,20.52
2018-06-15T06:13:21.767Z,20.79
2018-06-15T06:15:51.641Z,20.49
2018-06-15T06:18:21.544Z,20.32
2018-06-15T06:20:51.750Z,20.59
2018-06-15T06:23:21.291Z,20.79
2018-06-15T06:25:50.975Z,21.01
2018-06-15T06:28:20.652Z,20.56
2018-06-15T06:30:50.309Z,20.61
2018-06-15T06:33:19.810Z,20.87
2018-06-15T06:35:49.872Z,21.15
2018-06-15T06:38:19.443Z,21.36
2018-06-15T06:40:49.334Z,21.76
2018-06-15T06:43:19.074Z,21.84
2018-06-15T06:45:49.211Z,21.69
2018-06-15T06:48:19.150Z,21.95
2018-06-15T06:50:49.015Z,22.14
2018-06-15T06:53:18.813Z,22.09
2018-06-15T06:55:48.540Z,21.95
2018-06-15T06:58:18.584Z,21.99
2018-06-15T07:00:48.278Z,22.21
2018-06-15T07:03:17.900Z,22.49
2018-06-15T07:05:48.007Z,22.73
2018-06-15T07:08:17.953Z,22.92
2018-06-15T07:10:47.827Z,22.49
2018-06-15T07:13:17.783Z,22.53
2018-06-15T07:15:47.673Z,22.59
2018-06-15T07:18:17.719Z,23.15
2018-06-15T07:20:47.283Z,23.66
2018-06-15T07:23:17.266Z,23.71
2018-06-15T07:25:47.220Z,23.51
2018-06-15T07:28:17.012Z,23.45
2018-06-15T07:30:46.652Z,23.50
2018-06-15T07:33:16.287Z,23.48
2018-06-15T07:35:45.835Z,23.74
2018-06-15T07:38:15.765Z,23.83
2018-06-15T07:40:45.809Z,23.59
2018-06-15T07:43:16.350Z,23.77
2018-06-15T07:45:46.255Z,24.05
2018-06-15T07:48:16.106Z,24.12
2018-06-15T07:50:45.882Z,24.39
2018-06-15T07:53:15.582Z,24.80
2018-06-15T07:55:45.629Z,25.17
2018-06-15T07:58:15.286Z,25.20
2018-06-15T08:00:45.015Z,24.90
2018-06-15T08:03:14.676Z,24.84
2018-06-15T08:05:44.449Z,24.78
2018-06-15T08:08:14.269Z,25.40
2018-06-15T08:10:44.523Z,25.33
2018-06-15T08:13:14.296Z,25.53
2018-06-15T08:15:44.511Z,24.72
2018-06-15T08:18:14.226Z,24.22
2018-06-15T08:20:44.334Z,24.66
2018-06-15T08:23:14.594Z,24.65
2018-06-15T08:25:44.287Z,24.81
2018-06-15T08:28:14.509Z,25.00
2018-06-15T08:30:44.316Z,25.28
2018-06-15T08:33:14.511Z,25.17
2018-06-15T08:35:44.122Z,24.78
2018-06-15T08:38:13.747Z,24.43
2018-06-15T08:40:43.502Z,24.61
2018-06-15T08:43:13.187Z,24.52
2018-06-15T08:45:43.664Z,24.18
2018-06-15T08:48:13.416Z,24.49
2018-06-15T08:50:43.453Z,24.57
2018-06-15T08:53:13.179Z,24.48
2018-06-15T08:55:43.020Z,24.85
2018-06-15T08:58:13.161Z,24.93
2018-06-15T09:00:42.818Z,24.86
2018-06-15T09:03:12.709Z,25.16
2018-06-15T09:05:42.538Z,25.25
2018-06-15T09:08:12.138Z,24.76
2018-06-15T09:10:41.767Z,25.15
2018-06-15T09:13:11.886Z,25.30
2018-06-15T09:15:41.889Z,24.64
2018-06-15T09:18:12.099Z,24.71
2018-06-15T09:20:41.833Z,24.29
2018-06-15T09:23:11.850Z,24.43
2018-06-15T09:25:41.861Z,24.71
2018-06-15T09:28:11.867Z,24.69
2018-06-15T09:30:42.011Z,24.75
2018-06-15T09:33:11.761Z,23.51
2018-06-15T09:35:41.411Z,23.91
2018-06-15T09:38:12.409Z,23.34
2018-06-15T09:40:42.106Z,24.00
2018-06-15T09:43:12.115Z,24.23
2018-06-15T09:45:41.771Z,23.92
2018-06-15T09:48:11.490Z,23.98
2018-06-15T09:50:40.986Z,24.00
2018-06-15T09:53:10.823Z,24.07
2018-06-15T09:55:40.582Z,23.48
2018-06-15T09:58:10.879Z,23.18
2018-06-15T10:00:45.709Z,23.11
2018-06-15T10:03:15.837Z,22.77
2018-06-15T10:05:45.611Z,22.62
2018-06-15T10:08:15.217Z,22.08
2018-06-15T10:10:45.096Z,22.01
2018-06-15T10:13:14.649Z,21.63
2018-06-15T10:15:44.282Z,21.45
2018-06-15T10:18:14.703Z,21.34
2018-06-15T10:20:44.487Z,21.31
2018-06-15T10:23:14.928Z,21.19
2018-06-15T10:25:45.088Z,20.64
2018-06-15T10:28:15.419Z,19.56
2018-06-15T10:30:45.068Z,17.09
2018-06-15T10:33:15.052Z,16.73
2018-06-15T10:35:44.762Z,16.38
2018-06-15T10:38:14.703Z,16.68
2018-06-15T10:40:44.320Z,16.71
2018-06-15T10:43:13.931Z,16.99
2018-06-15T10:45:43.478Z,17.25
2018-06-15T10:48:13.240Z,17.41
2018-06-15T10:50:43.199Z,17.74
2018-06-15T10:53:13.024Z,17.81
2018-06-15T10:55:42.915Z,17.93
2018-06-15T10:58:13.220Z,17.89
2018-06-15T11:00:42.852Z,17.95
2018-06-15T11:03:12.559Z,18.01
2018-06-15T11:05:42.405Z,18.20
2018-06-15T11:08:12.397Z,18.79
2018-06-15T11:10:42.102Z,19.06
2018-06-15T11:13:12.456Z,19.44
2018-06-15T11:15:42.040Z,19.26
2018-06-15T11:18:12.042Z,20.07
2018-06-15T11:20:41.967Z,20.71
2018-06-15T11:23:11.883Z,21.84
2018-06-15T11:25:41.629Z,22.32
2018-06-15T11:28:11.555Z,21.85
2018-06-15T11:30:41.429Z,21.32
2018-06-15T11:33:11.457Z,21.42
2018-06-15T11:35:41.506Z,21.36
2018-06-15T11:38:11.806Z,21.71
2018-06-15T11:40:41.499Z,22.17
2018-06-15T11:43:11.295Z,22.65
2018-06-15T11:45:41.208Z,23.04
2018-06-15T11:48:10.747Z,21.70
2018-06-15T11:50:40.317Z,23.34
2018-06-15T11:53:10.337Z,23.25
2018-06-15T11:55:40.173Z,23.14
2018-06-15T11:58:09.999Z,22.86
2018-06-15T12:00:39.732Z,23.17
2018-06-15T12:03:10.091Z,23.25
2018-06-15T12:05:40.043Z,23.63
2018-06-15T12:08:09.789Z,23.62
2018-06-15T12:10:40.103Z,23.69
2018-06-15T12:13:09.682Z,24.24
2018-06-15T12:15:39.499Z,24.10
2018-06-15T12:18:09.044Z,24.87
2018-06-15T12:20:38.546Z,25.55
2018-06-15T12:23:08.466Z,25.66
2018-06-15T12:25:38.134Z,25.64
2018-06-15T12:28:08.746Z,26.00
2018-06-15T12:30:38.557Z,26.15
2018-06-15T12:33:08.726Z,26.46
2018-06-15T12:35:38.746Z,26.86
2018-06-15T12:38:09.044Z,26.81
2018-06-15T12:40:39.062Z,26.86
2018-06-15T12:43:09.299Z,27.37
2018-06-15T12:45:38.970Z,26.58
2018-06-15T12:48:08.681Z,26.04
2018-06-15T12:50:38.622Z,26.03
2018-06-15T12:53:08.633Z,25.70
2018-06-15T12:55:38.307Z,25.19
2018-06-15T12:58:07.967Z,24.95
2018-06-15T13:00:38.307Z,25.07
2018-06-15T13:03:08.111Z,25.39
2018-06-15T13:05:38.448Z,25.11
2018-06-15T13:08:08.179Z,25.07
2018-06-15T13:10:38.292Z,25.31
2018-06-15T13:13:08.079Z,24.89
2018-06-15T13:15:38.089Z,24.96
2018-06-15T13:18:07.808Z,24.78
2018-06-15T13:20:37.717Z,24.45
2018-06-15T13:23:07.355Z,22.81
2018-06-15T13:25:37.296Z,21.76
2018-06-15T13:28:07.263Z,21.00
2018-06-15T13:30:37.073Z,20.39
2018-06-15T13:33:06.838Z,20.20
2018-06-15T13:35:36.639Z,19.70
2018-06-15T13:38:06.311Z,19.60
2018-06-15T13:40:35.919Z,19.68
2018-06-15T13:43:06.082Z,18.85
2018-06-15T13:45:35.647Z,18.55
2018-06-15T13:48:05.657Z,18.15
2018-06-15T13:50:36.002Z,18.05
2018-06-15T13:53:05.566Z,18.07
2018-06-15T13:55:35.122Z,18.17
2018-06-15T13:58:05.126Z,18.06
2018-06-15T14:00:35.691Z,18.24
2018-06-15T14:03:05.973Z,18.42
2018-06-15T14:05:35.830Z,18.30
2018-06-15T14:08:06.121Z,18.21
2018-06-15T14:10:35.815Z,18.21
2018-06-15T14:13:06.273Z,18.33
2018-06-15T14:15:35.943Z,18.40
2018-06-15T14:18:06.256Z,18.27
2018-06-15T14:20:36.105Z,18.36
2018-06-15T14:23:06.133Z,18.28
2018-06-15T14:25:35.883Z,18.07
2018-06-15T14:28:05.573Z,17.37
2018-06-15T14:30:35.268Z,17.13
2018-06-15T14:33:05.165Z,16.78
2018-06-15T14:35:35.303Z,16.43
2018-06-15T14:38:05.007Z,16.01
2018-06-15T14:40:34.743Z,15.65
2018-06-15T14:43:04.618Z,15.50
2018-06-15T14:45:35.085Z,15.17
2018-06-15T14:48:04.975Z,14.93
2018-06-15T14:50:35.162Z,14.89
2018-06-15T14:53:05.017Z,15.08
2018-06-15T14:55:35.479Z,15.22
2018-06-15T14:58:05.100Z,15.24
2018-06-15T15:00:34.728Z,15.13
2018-06-15T15:03:04.571Z,15.30
2018-06-15T15:05:34.464Z,15.43
2018-06-15T15:08:04.463Z,15.55
2018-06-15T15:10:34.420Z,15.58
2018-06-15T15:13:04.715Z,15.54
2018-06-15T15:15:34.420Z,15.62
2018-06-15T15:18:04.910Z,15.68
2018-06-15T15:20:35.419Z,15.69
2018-06-15T15:23:05.573Z,15.73
2018-06-15T15:25:35.354Z,15.80
2018-06-15T15:28:05.257Z,15.93
2018-06-15T15:30:34.969Z,15.87
2018-06-15T15:33:04.734Z,16.11
2018-06-15T15:35:34.925Z,16.22
2018-06-15T15:38:04.810Z,15.93
2018-06-15T15:40:35.258Z,15.99
2018-06-15T15:43:05.100Z,15.92
2018-06-15T15:45:35.386Z,15.82
2018-06-15T15:48:05.023Z,15.65
2018-06-15T15:50:34.568Z,15.87
2018-06-15T15:53:04.419Z,16.16
2018-06-15T15:55:34.644Z,16.14
2018-06-15T15:58:04.398Z,16.10
2018-06-15T16:00:34.007Z,15.89
2018-06-15T16:03:03.692Z,16.01
2018-06-15T16:05:33.755Z,15.89
2018-06-15T16:08:03.458Z,15.86
2018-06-15T16:10:33.880Z,15.88
2018-06-15T16:13:04.060Z,16.03
2018-06-15T16:15:34.514Z,16.08
2018-06-15T16:18:04.467Z,16.42
2018-06-15T16:20:34.204Z,16.51
2018-06-15T16:23:04.582Z,16.40
2018-06-15T16:25:34.202Z,16.71
2018-06-15T16:28:03.813Z,16.96
2018-06-15T16:30:33.719Z,17.04
2018-06-15T16:33:03.507Z,16.67
2018-06-15T16:35:33.301Z,16.47
2018-06-15T16:38:03.322Z,16.74
2018-06-15T16:40:33.031Z,16.88
2018-06-15T16:43:02.770Z,17.18
2018-06-15T16:45:32.770Z,17.14
2018-06-15T16:48:02.547Z,17.24
2018-06-15T16:50:32.503Z,16.73
2018-06-15T16:53:02.182Z,16.55
2018-06-15T16:55:32.139Z,16.45
2018-06-15T16:58:01.719Z,16.59
2018-06-15T17:00:31.362Z,16.57
2018-06-15T17:03:01.332Z,16.65
2018-06-15T17:05:31.224Z,16.61
2018-06-15T17:08:00.979Z,16.43
2018-06-15T17:10:30.976Z,16.41
2018-06-15T17:13:01.026Z,16.44
2018-06-15T17:15:30.819Z,16.45
2018-06-15T17:18:00.560Z,16.39
2018-06-15T17:20:30.391Z,16.60
2018-06-15T17:23:00.296Z,16.79
2018-06-15T17:25:30.054Z,16.73
2018-06-15T17:28:00.107Z,16.65
2018-06-15T17:30:29.705Z,16.55
2018-06-15T17:32:59.722Z,16.57
2018-06-15T17:35:29.531Z,16.41
2018-06-15T17:37:59.347Z,16.51
2018-06-15T17:40:29.120Z,16.39
2018-06-15T17:42:58.901Z,16.58
2018-06-15T17:45:28.615Z,16.46
2018-06-15T17:47:58.591Z,16.28
2018-06-15T17:50:28.406Z,16.25
2018-06-15T17:52:58.671Z,16.20
2018-06-15T17:55:28.637Z,16.39
2018-06-15T17:57:58.221Z,16.25
2018-06-15T18:00:27.897Z,16.26
2018-06-15T18:02:57.666Z,16.37
2018-06-15T18:05:27.514Z,16.07
2018-06-15T18:07:57.327Z,16.03
2018-06-15T18:10:27.480Z,16.12
2018-06-15T18:12:57.727Z,16.20
2018-06-15T18:15:27.611Z,16.03
2018-06-15T18:17:57.502Z,16.05
2018-06-15T18:20:27.380Z,16.12
2018-06-15T18:22:57.306Z,16.05
2018-06-15T18:25:27.119Z,16.13
2018-06-15T18:27:56.879Z,15.94
2018-06-15T18:30:26.493Z,15.92
2018-06-15T18:32:56.270Z,15.98
2018-06-15T18:35:26.451Z,16.18
2018-06-15T18:37:56.400Z,16.18
2018-06-15T18:40:26.092Z,16.07
2018-06-15T18:42:55.803Z,15.87
2018-06-15T18:45:25.595Z,15.68
2018-06-15T18:47:55.539Z,15.79
2018-06-15T18:50:25.321Z,16.03
2018-06-15T18:52:55.113Z,16.05
2018-06-15T18:55:24.743Z,16.08
2018-06-15T18:57:54.378Z,16.02
2018-06-15T19:00:24.645Z,16.01
2018-06-15T19:02:54.636Z,15.95
2018-06-15T19:05:24.535Z,15.97
2018-06-15T19:07:54.506Z,15.79
2018-06-15T19:10:24.269Z,15.70
2018-06-15T19:12:54.338Z,15.84
2018-06-15T19:15:24.197Z,15.68
2018-06-15T19:17:54.319Z,15.62
2018-06-15T19:20:24.340Z,15.56
2018-06-15T19:22:54.182Z,15.35
2018-06-15T19:25:23.945Z,15.46
2018-06-15T19:27:53.543Z,15.37
2018-06-15T19:30:23.140Z,15.37
2018-06-15T19:32:53.095Z,15.22
2018-06-15T19:35:22.946Z,15.20
2018-06-15T19:37:52.530Z,15.29
2018-06-15T19:40:22.541Z,15.34
2018-06-15T19:42:52.355Z,15.31
2018-06-15T19:45:22.378Z,15.42
2018-06-15T19:47:52.398Z,15.55
2018-06-15T19:50:22.097Z,15.79
2018-06-15T19:52:51.851Z,15.73
2018-06-15T19:55:21.938Z,15.59
2018-06-15T19:57:51.611Z,15.57
2018-06-15T20:00:21.122Z,15.88
2018-06-15T20:02:51.124Z,16.09
2018-06-15T20:05:20.927Z,16.15
2018-06-15T20:07:50.637Z,16.10
2018-06-15T20:10:20.624Z,16.08
2018-06-15T20:12:50.285Z,16.07
2018-06-15T20:15:20.031Z,15.82
2018-06-15T20:17:49.970Z,15.81
2018-06-15T20:20:19.754Z,15.89
2018-06-15T20:22:49.284Z,15.67
2018-06-15T20:25:19.243Z,16.15
2018-06-15T20:27:48.756Z,16.16
2018-06-15T20:30:18.600Z,16.05
2018-06-15T20:32:48.547Z,16.00
2018-06-15T20:35:18.654Z,15.98
2018-06-15T20:37:48.956Z,15.96
2018-06-15T20:40:19.099Z,16.20
2018-06-15T20:42:48.771Z,16.15
2018-06-15T20:45:18.489Z,16.11
2018-06-15T20:47:48.761Z,16.27
2018-06-15T20:50:18.761Z,16.31
2018-06-15T20:52:48.526Z,16.27
2018-06-15T20:55:18.444Z,16.39
2018-06-15T20:57:48.008Z,16.30
2018-06-15T21:00:17.515Z,16.04
2018-06-15T21:02:47.229Z,16.02
2018-06-15T21:05:17.072Z,15.87
2018-06-15T21:07:47.142Z,15.99
2018-06-15T21:10:17.003Z,16.15
2018-06-15T21:12:46.673Z,16.01
2018-06-15T21:15:16.848Z,16.02
2018-06-15T21:17:46.485Z,16.27
2018-06-15T21:20:16.395Z,16.32
2018-06-15T21:22:46.427Z,16.26
2018-06-15T21:25:16.332Z,16.23
2018-06-15T21:27:46.318Z,16.22
2018-06-15T21:30:15.938Z,16.19
2018-06-15T21:32:45.486Z,16.33
2018-06-15T21:35:15.272Z,16.36
2018-06-15T21:37:45.027Z,16.21
2018-06-15T21:40:14.698Z,16.17
2018-06-15T21:42:44.607Z,15.89
2018-06-15T21:45:14.571Z,16.11
2018-06-15T21:47:44.467Z,15.90
2018-06-15T21:50:14.047Z,16.09
2018-06-15T21:52:44.038Z,16.14
2018-06-15T21:55:14.077Z,16.15
2018-06-15T21:57:44.004Z,16.12
2018-06-15T22:00:13.581Z,16.13
2018-06-15T22:02:43.639Z,16.18
2018-06-15T22:05:13.559Z,16.15
2018-06-15T22:07:43.260Z,16.12
2018-06-15T22:10:13.099Z,16.13
2018-06-15T22:12:42.882Z,15.96
2018-06-15T22:15:12.535Z,15.68
2018-06-15T22:17:42.226Z,15.63
2018-06-15T22:20:12.129Z,15.83
2018-06-15T22:22:41.975Z,15.95
2018-06-15T22:25:11.865Z,15.83
2018-06-15T22:27:41.696Z,15.66
2018-06-15T22:30:11.335Z,15.76
2018-06-15T22:32:40.979Z,15.65
2018-06-15T22:35:10.671Z,15.66
2018-06-15T22:37:40.376Z,15.67
2018-06-15T22:40:10.060Z,15.68
2018-06-15T22:42:40.153Z,15.67
2018-06-15T22:45:09.841Z,15.44
2018-06-15T22:47:39.804Z,15.61
2018-06-15T22:50:09.663Z,15.52
2018-06-15T22:52:39.514Z,15.41
2018-06-15T22:55:09.375Z,15.36
2018-06-15T22:57:38.964Z,15.49
2018-06-15T23:00:08.570Z,15.38
2018-06-15T23:02:38.431Z,15.29
2018-06-15T23:05:08.115Z,15.12
2018-06-15T23:07:38.092Z,15.28
2018-06-15T23:10:07.871Z,15.14
2018-06-15T23:12:37.941Z,15.22
2018-06-15T23:15:07.781Z,15.22
2018-06-15T23:17:37.668Z,15.37
2018-06-15T23:20:07.717Z,15.40
2018-06-15T23:22:37.452Z,15.60
2018-06-15T23:25:07.607Z,15.68
2018-06-15T23:27:37.247Z,15.61
2018-06-15T23:30:06.855Z,15.64
2018-06-15T23:32:36.929Z,15.76
2018-06-15T23:35:06.568Z,15.83
2018-06-15T23:37:36.529Z,15.93
2018-06-15T23:40:06.392Z,15.83
2018-06-15T23:42:36.131Z,15.78
2018-06-15T23:45:05.852Z,15.88
2018-06-15T23:47:35.845Z,15.88
2018-06-15T23:50:05.735Z,15.56
2018-06-15T23:52:35.691Z,15.68
2018-06-15T23:55:06.375Z,15.80
2018-06-15T23:57:35.868Z,15.69
